createdAt,value
2022-08-02T00:10:17.884Z,7869.37109
2022-08-02T00:25:20.137Z,6419.06445
2022-08-02T00:40:22.354Z,1892.1333
2022-08-02T00:55:31.215Z,3430.4458
2022-08-02T01:10:33.844Z,4908.59082
2022-08-02T01:25:36.017Z,7440.11621
2022-08-02T01:40:38.327Z,1841.84412
2022-08-02T01:55:57.916Z,1938.83057
2022-08-02T02:12:11.630Z,1586.80566
2022-08-02T02:27:16.001Z,1169.22522
2022-08-02T02:42:18.420Z,1034.52185
2022-08-02T02:57:20.780Z,601.67505
2022-08-02T03:12:26.885Z,265.81467
2022-08-02T03:27:32.913Z,91.59829
2022-08-02T03:42:35.191Z,19.75649
2022-08-02T03:57:37.451Z,1.79604
2022-08-02T04:12:39.711Z,0
2022-08-02T04:27:50.364Z,0
2022-08-02T04:43:18.283Z,0
2022-08-02T04:58:39.302Z,0
2022-08-02T05:13:59.313Z,0
2022-08-02T05:29:01.927Z,0
2022-08-02T05:44:04.145Z,0
2022-08-02T05:59:06.553Z,0
2022-08-02T06:14:08.752Z,0
2022-08-02T06:29:10.937Z,0
2022-08-02T06:44:46.012Z,0
2022-08-02T06:59:53.249Z,0
2022-08-02T07:14:55.463Z,0
2022-08-02T07:29:57.798Z,0
2022-08-02T07:45:00.073Z,0
2022-08-02T08:00:02.462Z,0
2022-08-02T08:15:04.831Z,0
2022-08-02T08:30:07.037Z,0
2022-08-02T08:45:09.268Z,0
2022-08-02T09:00:11.527Z,0
2022-08-02T09:15:16.008Z,0
2022-08-02T09:30:18.572Z,0
2022-08-02T09:45:20.801Z,0
2022-08-02T10:00:43.378Z,0
2022-08-02T10:15:54.294Z,0
2022-08-02T10:30:56.501Z,0
2022-08-02T10:45:58.810Z,0
2022-08-02T11:01:01.213Z,0
2022-08-02T11:16:07.752Z,0
2022-08-02T11:31:13.544Z,0
2022-08-02T11:46:15.858Z,0.89802
2022-08-02T12:01:18.117Z,11.67429
2022-08-02T12:16:20.335Z,88.90423
2022-08-02T12:31:22.716Z,269.40674
2022-08-02T12:46:24.911Z,568.44824
2022-08-02T13:01:27.170Z,905.20667
2022-08-02T13:16:31.296Z,1863.39661
2022-08-02T13:31:36.620Z,2606.06128
2022-08-02T13:46:39.292Z,3745.65186
2022-08-02T14:01:48.045Z,5609.94629
2022-08-02T14:16:50.335Z,6883.34229
2022-08-02T14:31:52.583Z,5692.56445
2022-08-02T14:46:56.182Z,5669.21582
2022-08-02T15:01:58.524Z,6580.7085
2022-08-02T15:17:00.878Z,5816.4917
2022-08-02T15:32:03.149Z,6329.26221
2022-08-02T15:47:05.335Z,6854.60547
2022-08-02T16:02:07.684Z,7401.50146
2022-08-02T16:17:09.954Z,6258.31885
2022-08-02T16:32:12.515Z,6032.91504
2022-08-02T16:47:15.198Z,6230.47998
2022-08-02T17:02:18.343Z,5742.85352
2022-08-02T17:17:21.747Z,5552.47314
2022-08-02T17:32:24.143Z,5085.50146
2022-08-02T17:47:31.657Z,5125.01416
2022-08-02T18:02:55.139Z,4865.48584
2022-08-02T18:17:58.001Z,4885.24219
2022-08-02T18:33:55.896Z,4887.03809
2022-08-02T18:49:13.300Z,4824.17676
2022-08-02T19:04:27.592Z,5010.96533
2022-08-02T19:19:30.853Z,4957.98193
2022-08-02T19:34:35.694Z,5089.99121
2022-08-02T19:49:40.431Z,5155.54688
2022-08-02T20:04:43.219Z,5142.07666
2022-08-02T20:19:52.548Z,5391.72705
2022-08-02T20:34:54.750Z,5502.18359
2022-08-02T20:49:57.101Z,5772.48828
2022-08-02T21:05:00.117Z,5700.64648
2022-08-02T21:20:10.082Z,2561.16016
2022-08-02T21:35:13.271Z,5533.61426
2022-08-02T21:50:16.308Z,5692.56445
2022-08-02T22:05:18.962Z,6233.17383
2022-08-02T22:20:21.526Z,6549.27783
2022-08-02T22:35:23.871Z,6936.32568
2022-08-02T22:50:27.098Z,7077.31494
2022-08-02T23:05:29.380Z,7515.55029
2022-08-02T23:20:31.614Z,7811.89746
2022-08-02T23:35:33.885Z,8053.46533
2022-08-02T23:50:36.084Z,8358.79297
